ftmx63

TAF MMCN 090437Z 0906/1006 00000KT P6SM BKN100 
         FM091800 23010KT P6SM SCT040 BKN100 OVC250 
         FM100500 00000KT P6SM SCT100 BKN250=
TAF MMDO 090437Z 0906/1006 22007KT P6SM SCT250 
         FM091800 22012KT P6SM BKN250 
         FM100500 22007KT P6SM SCT250=
TAF MMGM 090437Z 0906/1006 00000KT P6SM BKN250 
         FM091800 23010KT P6SM BKN030 BKN250 
         FM100500 00000KT P6SM BKN250=
TAF MMLM 090437Z 0906/1006 32005KT P6SM SCT100 
         FM091800 32010KT P6SM BKN080 OVC250 
         FM100500 33005KT P6SM SCT100=
TAF MMLT 090437Z 0906/1006 00000KT P6SM SCT120 
         FM091800 16012KT P6SM BKN100 OVC250 
         FM100500 00000KT P6SM SCT250=
TAF MMSD 090437Z 0906/1006 31006KT P6SM SCT250 
         FM091800 16012KT P6SM SCT120 BKN250 
         FM100500 32005KT P6SM SCT250=
TAF MMSL 090437Z 0906/1006 31006KT P6SM SKC 
         FM091800 25012KT P6SM SCT120 BKN250 
         FM100500 32005KT P6SM SKC=